El Paso, TX (88549)

10:16 AM MDT on August 31, 2016 (GMT -0600)
Shock | | Change Station

Elev 3924 ft 31.76 °N, 106.33 °W | Updated 1 minute ago

Mostly Cloudy
Mostly Cloudy
74.3 °F
Feels Like 76 °F
N
3.0
Wind Variable Wind from SSE

Today
High -- | Low -- °F
--% Chance of Precip.
Yesterday
High -- | Low -- °F
Precip. -- in
Pressure 30.02 in
Visibility 10.0 miles
Clouds Few 2700 ft
Mostly Cloudy 6500 ft
Mostly Cloudy 8000 ft
Heat Index 76 °F
Dew Point 63 °F
Humidity 68%
Rainfall 0.00 in
Snow Depth Not available.
6:40 AM 7:29 PM
Waning Crescent, 1% visible
METAR KELP 311551Z 07006KT 10SM FEW027 BKN065 BKN080 22/18 A3020 RMK AO2 SLP164 CLDS TPG MTNS W-NW T02220178
Pressure 30.02 in
Visibility 10.0 miles
Clouds Few 2700 ft
Mostly Cloudy 6500 ft
Mostly Cloudy 8000 ft
Heat Index 76 °F
Dew Point 63 °F
Humidity 68%
Rainfall 0.00 in
Snow Depth Not available.
6:40 AM 7:29 PM
Waning Crescent, 1% visible
METAR KELP 311551Z 07006KT 10SM FEW027 BKN065 BKN080 22/18 A3020 RMK AO2 SLP164 CLDS TPG MTNS W-NW T02220178

10-Day Weather Forecast

Almanac

Astronomy

Aug. 31, 2016 Rise Set
Actual Time
Civil Twilight
Nautical Twilight
Astronomical Twilight
Moon
Length of Visible Light
Length of Day
Tomorrow will be .
, % of the Moon is Illuminated

Today's Extremes

State Highs State Lows

Community

WunderPhotos

Upload Photos

1,936,105 photos uploaded!

WunderBlog® & News

Nearby

Air Quality

  Air Quality AQ Index Pollutant
Not available.

Snow Depth

Station Depth Elevation

Earthquake Activity

City Distance Mag. Time & Date
Minimum magnitude displayed is 2.5.

Coastal Water Temperatures

Place Temperature

Stations

Nearby Weather Stations

Station Location Temp. Windchill Dew Point Humidity Wind Precip. Elev Updated Type
                   

Watches & Warnings

There are currently no watches in effect.